sensor_id;sensor_type;location;lat;lon;timestamp;pressure;altitude;pressure_sealevel;temperature;humidity
36692;BME280;22678;52.052;4.242;2023-02-02T00:01:11;102245.97;;;8.12;88.74
36692;BME280;22678;52.052;4.242;2023-02-02T00:03:36;102248.63;;;8.14;88.52
36692;BME280;22678;52.052;4.242;2023-02-02T00:06:02;102261.97;;;8.23;88.51
36692;BME280;22678;52.052;4.242;2023-02-02T00:08:28;102262.84;;;8.23;88.66
36692;BME280;22678;52.052;4.242;2023-02-02T00:10:54;102264.47;;;8.18;88.70
36692;BME280;22678;52.052;4.242;2023-02-02T00:13:19;102247.75;;;8.13;88.64
36692;BME280;22678;52.052;4.242;2023-02-02T00:15:45;102249.41;;;8.10;88.43
36692;BME280;22678;52.052;4.242;2023-02-02T00:18:10;102261.06;;;8.22;88.66
36692;BME280;22678;52.052;4.242;2023-02-02T00:20:35;102220.09;;;7.89;88.42
36692;BME280;22678;52.052;4.242;2023-02-02T00:23:01;102252.16;;;8.14;88.39
36692;BME280;22678;52.052;4.242;2023-02-02T00:25:26;102274.19;;;8.22;88.63
36692;BME280;22678;52.052;4.242;2023-02-02T00:27:51;102258.41;;;8.21;88.54
36692;BME280;22678;52.052;4.242;2023-02-02T00:30:17;102269.69;;;8.18;88.76
36692;BME280;22678;52.052;4.242;2023-02-02T00:32:42;102225.41;;;7.93;88.89
36692;BME280;22678;52.052;4.242;2023-02-02T00:35:08;102259.88;;;8.10;88.83
36692;BME280;22678;52.052;4.242;2023-02-02T00:37:34;102257.25;;;8.10;88.90
36692;BME280;22678;52.052;4.242;2023-02-02T00:39:59;102271.25;;;8.10;88.97
36692;BME280;22678;52.052;4.242;2023-02-02T00:42:25;102281.91;;;8.16;88.87
36692;BME280;22678;52.052;4.242;2023-02-02T00:44:50;102275.78;;;8.16;88.89
36692;BME280;22678;52.052;4.242;2023-02-02T00:47:34;102259.00;;;8.09;88.85
36692;BME280;22678;52.052;4.242;2023-02-02T00:49:59;102271.47;;;8.19;88.60
36692;BME280;22678;52.052;4.242;2023-02-02T00:52:25;102268.03;;;8.20;88.59
36692;BME280;22678;52.052;4.242;2023-02-02T00:54:50;102278.47;;;8.19;88.63
36692;BME280;22678;52.052;4.242;2023-02-02T00:57:15;102253.69;;;8.06;88.51
36692;BME280;22678;52.052;4.242;2023-02-02T00:59:41;102267.94;;;8.17;88.68
36692;BME280;22678;52.052;4.242;2023-02-02T01:02:09;102274.03;;;8.16;88.88
36692;BME280;22678;52.052;4.242;2023-02-02T01:04:34;102257.16;;;8.05;88.63
36692;BME280;22678;52.052;4.242;2023-02-02T01:06:59;102205.84;;;7.78;88.80
36692;BME280;22678;52.052;4.242;2023-02-02T01:09:25;102268.66;;;8.10;88.72
36692;BME280;22678;52.052;4.242;2023-02-02T01:11:50;102278.41;;;8.16;88.71
36692;BME280;22678;52.052;4.242;2023-02-02T01:14:15;102242.31;;;8.04;88.76
36692;BME280;22678;52.052;4.242;2023-02-02T01:16:41;102260.94;;;8.16;88.96
36692;BME280;22678;52.052;4.242;2023-02-02T01:19:06;102207.06;;;7.91;88.56
36692;BME280;22678;52.052;4.242;2023-02-02T01:21:31;102256.53;;;8.15;88.72
36692;BME280;22678;52.052;4.242;2023-02-02T01:23:56;102190.94;;;7.76;88.81
36692;BME280;22678;52.052;4.242;2023-02-02T01:26:22;102212.19;;;7.86;88.70
36692;BME280;22678;52.052;4.242;2023-02-02T01:28:48;102264.47;;;8.18;88.67
36692;BME280;22678;52.052;4.242;2023-02-02T01:31:16;102263.44;;;8.12;88.73
36692;BME280;22678;52.052;4.242;2023-02-02T01:33:43;102262.59;;;8.13;88.78
36692;BME280;22678;52.052;4.242;2023-02-02T01:36:14;102251.97;;;8.08;88.73
36692;BME280;22678;52.052;4.242;2023-02-02T01:38:41;102256.41;;;8.11;88.90
36692;BME280;22678;52.052;4.242;2023-02-02T01:41:07;102273.00;;;8.11;88.86
36692;BME280;22678;52.052;4.242;2023-02-02T01:46:15;102270.34;;;8.10;89.07
36692;BME280;22678;52.052;4.242;2023-02-02T01:48:45;102265.94;;;8.07;89.11
36692;BME280;22678;52.052;4.242;2023-02-02T01:51:17;102266.03;;;8.10;89.12
36692;BME280;22678;52.052;4.242;2023-02-02T01:53:45;102263.38;;;8.09;89.13
36692;BME280;22678;52.052;4.242;2023-02-02T01:56:16;102267.78;;;8.11;88.91
36692;BME280;22678;52.052;4.242;2023-02-02T01:58:43;102268.59;;;8.09;89.02
36692;BME280;22678;52.052;4.242;2023-02-02T02:01:10;102263.28;;;8.05;88.92
36692;BME280;22678;52.052;4.242;2023-02-02T02:03:36;102277.34;;;8.09;88.92
36692;BME280;22678;52.052;4.242;2023-02-02T02:06:07;102277.41;;;8.12;88.89
36692;BME280;22678;52.052;4.242;2023-02-02T02:08:38;102280.00;;;8.11;88.92
36692;BME280;22678;52.052;4.242;2023-02-02T02:11:04;102280.03;;;8.12;88.90
36692;BME280;22678;52.052;4.242;2023-02-02T02:13:30;102273.84;;;8.09;89.14
36692;BME280;22678;52.052;4.242;2023-02-02T02:16:22;102276.59;;;8.13;89.26
36692;BME280;22678;52.052;4.242;2023-02-02T02:21:52;102260.78;;;8.10;89.02
36692;BME280;22678;52.052;4.242;2023-02-02T02:31:07;102260.03;;;8.14;88.94
36692;BME280;22678;52.052;4.242;2023-02-02T02:39:25;102251.06;;;8.06;89.17
36692;BME280;22678;52.052;4.242;2023-02-02T02:41:56;102259.06;;;8.12;88.88
36692;BME280;22678;52.052;4.242;2023-02-02T02:44:23;102261.59;;;8.07;89.15
36692;BME280;22678;52.052;4.242;2023-02-02T02:46:49;102256.31;;;8.06;89.16
36692;BME280;22678;52.052;4.242;2023-02-02T02:49:15;102254.59;;;8.08;88.88
36692;BME280;22678;52.052;4.242;2023-02-02T02:51:51;102264.31;;;8.12;89.20
36692;BME280;22678;52.052;4.242;2023-02-02T02:54:20;102262.63;;;8.14;89.18
36692;BME280;22678;52.052;4.242;2023-02-02T02:56:58;102248.63;;;8.14;88.42
36692;BME280;22678;52.052;4.242;2023-02-02T03:08:10;102260.94;;;8.16;88.98
36692;BME280;22678;52.052;4.242;2023-02-02T03:10:39;102243.28;;;8.09;88.88
36692;BME280;22678;52.052;4.242;2023-02-02T03:13:08;102256.47;;;8.12;89.01
36692;BME280;22678;52.052;4.242;2023-02-02T03:15:34;102248.59;;;8.12;89.13
36692;BME280;22678;52.052;4.242;2023-02-02T03:18:00;102254.66;;;8.11;89.41
36692;BME280;22678;52.052;4.242;2023-02-02T03:20:25;102252.06;;;8.11;89.16
36692;BME280;22678;52.052;4.242;2023-02-02T03:22:50;102244.00;;;8.03;89.12
36692;BME280;22678;52.052;4.242;2023-02-02T03:25:16;102249.16;;;7.99;89.28
36692;BME280;22678;52.052;4.242;2023-02-02T03:27:41;102259.66;;;8.00;89.40
36692;BME280;22678;52.052;4.242;2023-02-02T03:30:09;102279.97;;;8.09;89.32
36692;BME280;22678;52.052;4.242;2023-02-02T03:32:35;102261.50;;;8.04;89.22
36692;BME280;22678;52.052;4.242;2023-02-02T03:35:01;102260.59;;;8.02;89.53
36692;BME280;22678;52.052;4.242;2023-02-02T03:37:27;102272.94;;;8.08;89.57
36692;BME280;22678;52.052;4.242;2023-02-02T03:39:52;102283.56;;;8.13;89.53
36692;BME280;22678;52.052;4.242;2023-02-02T03:42:17;102272.13;;;8.11;89.43
36692;BME280;22678;52.052;4.242;2023-02-02T03:44:42;102288.84;;;8.14;89.58
36692;BME280;22678;52.052;4.242;2023-02-02T03:47:08;102279.16;;;8.12;89.69
36692;BME280;22678;52.052;4.242;2023-02-02T03:49:33;102286.06;;;8.10;89.61
36692;BME280;22678;52.052;4.242;2023-02-02T03:51:58;102292.38;;;8.16;89.85
36692;BME280;22678;52.052;4.242;2023-02-02T03:54:25;102288.84;;;8.14;89.75
36692;BME280;22678;52.052;4.242;2023-02-02T03:56:51;102301.06;;;8.15;89.70
36692;BME280;22678;52.052;4.242;2023-02-02T03:59:16;102276.50;;;8.10;89.52
36692;BME280;22678;52.052;4.242;2023-02-02T04:01:41;102282.66;;;8.12;89.48
36692;BME280;22678;52.052;4.242;2023-02-02T04:04:07;102233.97;;;7.85;89.36
36692;BME280;22678;52.052;4.242;2023-02-02T04:06:32;102287.91;;;8.12;89.10
36692;BME280;22678;52.052;4.242;2023-02-02T04:08:57;102286.22;;;8.14;89.08
36692;BME280;22678;52.052;4.242;2023-02-02T04:11:23;102295.75;;;8.12;89.10
36692;BME280;22678;52.052;4.242;2023-02-02T04:13:48;102277.31;;;8.07;89.12
36692;BME280;22678;52.052;4.242;2023-02-02T04:16:13;102285.44;;;8.18;89.08
36692;BME280;22678;52.052;4.242;2023-02-02T04:18:39;102281.91;;;8.16;89.00
36692;BME280;22678;52.052;4.242;2023-02-02T04:21:05;102288.03;;;8.18;88.63
36692;BME280;22678;52.052;4.242;2023-02-02T04:23:32;102268.75;;;8.15;88.68
36692;BME280;22678;52.052;4.242;2023-02-02T04:25:57;102288.03;;;8.18;88.91
36692;BME280;22678;52.052;4.242;2023-02-02T04:28:24;102271.41;;;8.16;88.89
36692;BME280;22678;52.052;4.242;2023-02-02T04:30:51;102295.00;;;8.16;88.66
36692;BME280;22678;52.052;4.242;2023-02-02T04:33:16;102290.56;;;8.14;88.58
36692;BME280;22678;52.052;4.242;2023-02-02T04:35:42;102288.91;;;8.17;88.62
36692;BME280;22678;52.052;4.242;2023-02-02T04:38:08;102299.31;;;8.14;88.58
36692;BME280;22678;52.052;4.242;2023-02-02T04:40:37;102306.31;;;8.15;88.62
36692;BME280;22678;52.052;4.242;2023-02-02T04:43:02;102301.94;;;8.14;88.67
36692;BME280;22678;52.052;4.242;2023-02-02T04:45:27;102303.69;;;8.15;88.80
36692;BME280;22678;52.052;4.242;2023-02-02T04:47:53;102310.78;;;8.19;88.76
36692;BME280;22678;52.052;4.242;2023-02-02T04:50:18;102299.41;;;8.17;88.93
36692;BME280;22678;52.052;4.242;2023-02-02T04:52:43;102293.19;;;8.14;89.05
36692;BME280;22678;52.052;4.242;2023-02-02T04:55:08;102273.88;;;8.10;88.88
36692;BME280;22678;52.052;4.242;2023-02-02T04:57:34;102288.00;;;8.17;88.90
36692;BME280;22678;52.052;4.242;2023-02-02T04:59:59;102282.63;;;8.11;88.95
36692;BME280;22678;52.052;4.242;2023-02-02T05:02:24;102287.78;;;8.07;88.99
36692;BME280;22678;52.052;4.242;2023-02-02T05:04:50;102285.25;;;8.11;89.33
36692;BME280;22678;52.052;4.242;2023-02-02T05:07:15;102293.06;;;8.09;89.20
36692;BME280;22678;52.052;4.242;2023-02-02T05:09:40;102309.81;;;8.14;89.18
36692;BME280;22678;52.052;4.242;2023-02-02T05:12:06;102294.88;;;8.12;89.19
36692;BME280;22678;52.052;4.242;2023-02-02T05:14:31;102291.28;;;8.08;89.11
36692;BME280;22678;52.052;4.242;2023-02-02T05:16:56;102300.16;;;8.13;89.12
36692;BME280;22678;52.052;4.242;2023-02-02T05:19:22;102300.97;;;8.11;89.27
36692;BME280;22678;52.052;4.242;2023-02-02T05:21:47;102297.47;;;8.10;89.29
36692;BME280;22678;52.052;4.242;2023-02-02T05:24:14;102294.81;;;8.09;89.18
36692;BME280;22678;52.052;4.242;2023-02-02T05:26:39;102296.44;;;8.05;89.47
36692;BME280;22678;52.052;4.242;2023-02-02T05:29:04;102305.31;;;8.10;89.53
36692;BME280;22678;52.052;4.242;2023-02-02T05:31:31;102303.66;;;8.14;89.47
36692;BME280;22678;52.052;4.242;2023-02-02T05:33:56;102288.59;;;8.05;89.59
36692;BME280;22678;52.052;4.242;2023-02-02T05:36:22;102307.03;;;8.10;89.49
36692;BME280;22678;52.052;4.242;2023-02-02T05:38:47;102299.00;;;8.02;89.67
36692;BME280;22678;52.052;4.242;2023-02-02T05:41:12;102312.16;;;8.05;89.78
36692;BME280;22678;52.052;4.242;2023-02-02T05:43:38;102288.38;;;7.96;89.92
36692;BME280;22678;52.052;4.242;2023-02-02T05:46:03;102314.00;;;8.07;89.89
36692;BME280;22678;52.052;4.242;2023-02-02T05:48:29;102309.63;;;8.08;90.28
36692;BME280;22678;52.052;4.242;2023-02-02T05:51:07;102303.34;;;8.01;90.17
36692;BME280;22678;52.052;4.242;2023-02-02T05:53:35;102305.19;;;8.04;90.41
36692;BME280;22678;52.052;4.242;2023-02-02T05:56:00;102309.53;;;8.05;90.42
36692;BME280;22678;52.052;4.242;2023-02-02T05:58:26;102321.00;;;8.09;90.34
36692;BME280;22678;52.052;4.242;2023-02-02T06:00:52;102321.88;;;8.09;90.33
36692;BME280;22678;52.052;4.242;2023-02-02T06:03:17;102325.34;;;8.08;90.62
36692;BME280;22678;52.052;4.242;2023-02-02T06:05:43;102327.94;;;8.06;90.68
36692;BME280;22678;52.052;4.242;2023-02-02T06:08:08;102313.81;;;8.00;90.63
36692;BME280;22678;52.052;4.242;2023-02-02T06:10:34;102326.19;;;8.05;90.73
36692;BME280;22678;52.052;4.242;2023-02-02T06:13:02;102324.41;;;8.04;90.39
36692;BME280;22678;52.052;4.242;2023-02-02T06:15:27;102329.59;;;8.03;90.68
36692;BME280;22678;52.052;4.242;2023-02-02T06:17:53;102325.19;;;8.02;90.59
36692;BME280;22678;52.052;4.242;2023-02-02T06:20:18;102333.97;;;8.02;90.60
36692;BME280;22678;52.052;4.242;2023-02-02T06:22:43;102336.56;;;8.02;90.62
36692;BME280;22678;52.052;4.242;2023-02-02T06:25:09;102354.09;;;8.05;90.73
36692;BME280;22678;52.052;4.242;2023-02-02T06:27:34;102359.44;;;8.10;90.66
36692;BME280;22678;52.052;4.242;2023-02-02T06:30:00;102354.97;;;8.04;90.48
36692;BME280;22678;52.052;4.242;2023-02-02T06:32:27;102353.09;;;8.00;90.33
36692;BME280;22678;52.052;4.242;2023-02-02T06:34:53;102372.59;;;8.11;90.35
36692;BME280;22678;52.052;4.242;2023-02-02T06:37:18;102360.28;;;8.07;90.29
36692;BME280;22678;52.052;4.242;2023-02-02T06:39:44;102356.78;;;8.08;90.47
36692;BME280;22678;52.052;4.242;2023-02-02T06:42:09;102355.91;;;8.07;90.15
36692;BME280;22678;52.052;4.242;2023-02-02T06:44:34;102349.75;;;8.05;90.03
36692;BME280;22678;52.052;4.242;2023-02-02T06:46:59;102350.59;;;8.04;89.97
36692;BME280;22678;52.052;4.242;2023-02-02T06:49:25;102343.66;;;8.06;89.86
36692;BME280;22678;52.052;4.242;2023-02-02T06:51:50;102334.00;;;8.04;89.73
36692;BME280;22678;52.052;4.242;2023-02-02T06:54:15;102346.25;;;8.06;89.85
36692;BME280;22678;52.052;4.242;2023-02-02T06:56:41;102338.28;;;8.02;89.57
36692;BME280;22678;52.052;4.242;2023-02-02T06:59:06;102334.78;;;8.01;89.46
36692;BME280;22678;52.052;4.242;2023-02-02T07:01:31;102359.22;;;8.00;89.50
36692;BME280;22678;52.052;4.242;2023-02-02T07:03:57;102361.00;;;8.01;89.38
36692;BME280;22678;52.052;4.242;2023-02-02T07:06:27;102363.56;;;8.00;89.42
36692;BME280;22678;52.052;4.242;2023-02-02T07:08:53;102351.22;;;7.96;89.60
36692;BME280;22678;52.052;4.242;2023-02-02T07:11:19;102371.44;;;8.00;89.66
36692;BME280;22678;52.052;4.242;2023-02-02T07:13:46;102371.44;;;8.00;89.54
36692;BME280;22678;52.052;4.242;2023-02-02T07:16:12;102388.88;;;7.99;89.57
36692;BME280;22678;52.052;4.242;2023-02-02T07:18:38;102369.38;;;7.88;89.72
36692;BME280;22678;52.052;4.242;2023-02-02T07:21:05;102395.69;;;7.93;89.92
36692;BME280;22678;52.052;4.242;2023-02-02T07:23:31;102391.19;;;7.88;89.89
36692;BME280;22678;52.052;4.242;2023-02-02T07:26:04;102401.75;;;7.92;89.96
36692;BME280;22678;52.052;4.242;2023-02-02T07:28:30;102403.47;;;7.89;90.18
36692;BME280;22678;52.052;4.242;2023-02-02T07:30:56;102410.53;;;7.92;90.11
36692;BME280;22678;52.052;4.242;2023-02-02T07:33:21;102413.91;;;7.88;90.25
36692;BME280;22678;52.052;4.242;2023-02-02T07:35:47;102406.72;;;7.81;90.21
36692;BME280;22678;52.052;4.242;2023-02-02T07:38:12;102414.66;;;7.84;90.50
36692;BME280;22678;52.052;4.242;2023-02-02T07:40:37;102422.47;;;7.82;90.65
36692;BME280;22678;52.052;4.242;2023-02-02T07:43:02;102426.91;;;7.85;90.56
36692;BME280;22678;52.052;4.242;2023-02-02T07:45:29;102430.44;;;7.87;90.76
36692;BME280;22678;52.052;4.242;2023-02-02T07:47:56;102438.25;;;7.85;91.07
36692;BME280;22678;52.052;4.242;2023-02-02T07:50:21;102422.47;;;7.82;90.95
36692;BME280;22678;52.052;4.242;2023-02-02T07:52:47;102426.91;;;7.85;90.93
36692;BME280;22678;52.052;4.242;2023-02-02T07:55:12;102436.59;;;7.89;90.92
36692;BME280;22678;52.052;4.242;2023-02-02T07:57:38;102434.81;;;7.86;90.89
36692;BME280;22678;52.052;4.242;2023-02-02T08:00:03;102434.06;;;7.91;90.54
36692;BME280;22678;52.052;4.242;2023-02-02T08:02:29;102439.22;;;7.89;90.45
36692;BME280;22678;52.052;4.242;2023-02-02T08:04:54;102422.63;;;7.88;90.46
36692;BME280;22678;52.052;4.242;2023-02-02T08:07:19;102428.69;;;7.87;90.50
36692;BME280;22678;52.052;4.242;2023-02-02T08:09:48;102443.84;;;7.98;90.37
36692;BME280;22678;52.052;4.242;2023-02-02T08:12:14;102418.34;;;7.91;90.61
36692;BME280;22678;52.052;4.242;2023-02-02T08:14:40;102436.94;;;8.00;90.45
36692;BME280;22678;52.052;4.242;2023-02-02T08:17:05;102450.06;;;8.01;90.38
36692;BME280;22678;52.052;4.242;2023-02-02T08:19:30;102441.25;;;7.99;90.13
36692;BME280;22678;52.052;4.242;2023-02-02T08:21:55;102456.19;;;8.02;90.37
36692;BME280;22678;52.052;4.242;2023-02-02T08:24:21;102427.94;;;7.92;90.13
36692;BME280;22678;52.052;4.242;2023-02-02T08:26:46;102442.28;;;8.04;90.07
36692;BME280;22678;52.052;4.242;2023-02-02T08:29:11;102446.66;;;8.04;90.12
36692;BME280;22678;52.052;4.242;2023-02-02T08:31:42;102456.34;;;8.08;89.68
36692;BME280;22678;52.052;4.242;2023-02-02T08:34:08;102454.53;;;8.04;89.82
36692;BME280;22678;52.052;4.242;2023-02-02T08:36:34;102445.78;;;8.05;89.95
36692;BME280;22678;52.052;4.242;2023-02-02T08:39:04;102452.84;;;8.07;90.01
36692;BME280;22678;52.052;4.242;2023-02-02T08:41:30;102458.13;;;8.09;90.01
36692;BME280;22678;52.052;4.242;2023-02-02T08:43:56;102457.34;;;8.12;90.04
36692;BME280;22678;52.052;4.242;2023-02-02T08:46:21;102458.22;;;8.12;89.99
36692;BME280;22678;52.052;4.242;2023-02-02T08:48:47;102456.56;;;8.14;90.01
36692;BME280;22678;52.052;4.242;2023-02-02T08:51:14;102465.41;;;8.19;89.80
36692;BME280;22678;52.052;4.242;2023-02-02T08:53:41;102466.25;;;8.18;89.66
36692;BME280;22678;52.052;4.242;2023-02-02T08:56:10;102469.03;;;8.23;89.51
36692;BME280;22678;52.052;4.242;2023-02-02T08:58:36;102473.41;;;8.24;89.19
36692;BME280;22678;52.052;4.242;2023-02-02T09:01:16;102471.66;;;8.23;89.33
36692;BME280;22678;52.052;4.242;2023-02-02T09:03:42;102470.72;;;8.22;89.47
36692;BME280;22678;52.052;4.242;2023-02-02T09:06:16;102469.06;;;8.24;89.62
36692;BME280;22678;52.052;4.242;2023-02-02T09:08:42;102474.44;;;8.29;89.30
36692;BME280;22678;52.052;4.242;2023-02-02T09:11:10;102485.91;;;8.34;89.08
36692;BME280;22678;52.052;4.242;2023-02-02T09:13:37;102479.94;;;8.40;88.79
36692;BME280;22678;52.052;4.242;2023-02-02T09:16:04;102485.34;;;8.45;88.77
36692;BME280;22678;52.052;4.242;2023-02-02T09:18:30;102489.03;;;8.51;88.29
36692;BME280;22678;52.052;4.242;2023-02-02T09:21:01;102495.34;;;8.59;87.86
36692;BME280;22678;52.052;4.242;2023-02-02T09:23:29;102487.66;;;8.66;87.68
36692;BME280;22678;52.052;4.242;2023-02-02T09:25:55;102490.44;;;8.72;87.37
36692;BME280;22678;52.052;4.242;2023-02-02T09:28:20;102495.88;;;8.80;87.27
36692;BME280;22678;52.052;4.242;2023-02-02T09:30:45;102485.47;;;8.83;87.23
36692;BME280;22678;52.052;4.242;2023-02-02T09:33:11;102488.19;;;8.87;86.55
36692;BME280;22678;52.052;4.242;2023-02-02T09:35:36;102478.50;;;8.85;85.84
36692;BME280;22678;52.052;4.242;2023-02-02T09:38:01;102472.31;;;8.81;85.73
36692;BME280;22678;52.052;4.242;2023-02-02T09:40:30;102479.41;;;8.85;85.74
36692;BME280;22678;52.052;4.242;2023-02-02T09:48:46;102476.91;;;8.90;85.07
36692;BME280;22678;52.052;4.242;2023-02-02T09:51:18;102492.91;;;9.01;85.16
36692;BME280;22678;52.052;4.242;2023-02-02T09:53:50;102494.66;;;9.00;84.66
36692;BME280;22678;52.052;4.242;2023-02-02T09:56:23;102497.44;;;9.08;84.13
36692;BME280;22678;52.052;4.242;2023-02-02T09:58:54;102500.06;;;9.08;83.98
36692;BME280;22678;52.052;4.242;2023-02-02T10:01:24;102492.06;;;9.02;83.63
36692;BME280;22678;52.052;4.242;2023-02-02T10:14:52;102510.16;;;9.27;82.80
36692;BME280;22678;52.052;4.242;2023-02-02T10:17:43;102510.41;;;9.37;82.49
36692;BME280;22678;52.052;4.242;2023-02-02T10:20:30;102506.03;;;9.37;82.52
36692;BME280;22678;52.052;4.242;2023-02-02T10:23:08;102489.25;;;9.31;82.40
36692;BME280;22678;52.052;4.242;2023-02-02T10:25:36;102507.03;;;9.42;82.18
36692;BME280;22678;52.052;4.242;2023-02-02T10:28:16;102519.56;;;9.54;81.87
36692;BME280;22678;52.052;4.242;2023-02-02T10:30:45;102523.16;;;9.59;81.77
36692;BME280;22678;52.052;4.242;2023-02-02T10:33:20;102524.97;;;9.60;81.66
36692;BME280;22678;52.052;4.242;2023-02-02T10:36:25;102533.75;;;9.62;81.98
36692;BME280;22678;52.052;4.242;2023-02-02T10:44:19;102533.28;;;9.80;81.53
36692;BME280;22678;52.052;4.242;2023-02-02T10:46:53;102539.44;;;9.81;81.23
36692;BME280;22678;52.052;4.242;2023-02-02T10:49:25;102542.13;;;9.84;80.84
36692;BME280;22678;52.052;4.242;2023-02-02T10:55:09;102532.25;;;9.74;80.69
36692;BME280;22678;52.052;4.242;2023-02-02T10:57:57;102527.00;;;9.74;81.10
36692;BME280;22678;52.052;4.242;2023-02-02T11:00:36;102517.22;;;9.67;81.13
36692;BME280;22678;52.052;4.242;2023-02-02T11:03:03;102536.56;;;9.70;81.11
36692;BME280;22678;52.052;4.242;2023-02-02T11:05:31;102533.88;;;9.69;81.42
36692;BME280;22678;52.052;4.242;2023-02-02T11:08:18;102529.50;;;9.68;81.83
36692;BME280;22678;52.052;4.242;2023-02-02T11:10:46;102509.13;;;9.57;81.56
36692;BME280;22678;52.052;4.242;2023-02-02T11:13:20;102523.31;;;9.65;81.74
36692;BME280;22678;52.052;4.242;2023-02-02T11:15:49;102526.84;;;9.66;81.70
36692;BME280;22678;52.052;4.242;2023-02-02T11:18:27;102524.22;;;9.66;82.01
36692;BME280;22678;52.052;4.242;2023-02-02T11:20:52;102518.84;;;9.61;81.61
36692;BME280;22678;52.052;4.242;2023-02-02T11:23:20;102536.47;;;9.67;81.93
36692;BME280;22678;52.052;4.242;2023-02-02T11:25:57;102546.03;;;9.63;81.68
36692;BME280;22678;52.052;4.242;2023-02-02T11:28:24;102495.44;;;9.33;81.79
36692;BME280;22678;52.052;4.242;2023-02-02T11:30:54;102540.56;;;9.54;81.82
36692;BME280;22678;52.052;4.242;2023-02-02T11:36:17;102536.72;;;9.40;82.76
36692;BME280;22678;52.052;4.242;2023-02-02T11:38:42;102536.81;;;9.43;82.97
36692;BME280;22678;52.052;4.242;2023-02-02T11:41:08;102542.13;;;9.46;83.16
36692;BME280;22678;52.052;4.242;2023-02-02T11:43:46;102542.19;;;9.49;82.81
36692;BME280;22678;52.052;4.242;2023-02-02T11:46:19;102535.97;;;9.44;82.96
36692;BME280;22678;52.052;4.242;2023-02-02T11:49:03;102544.72;;;9.44;82.86
36692;BME280;22678;52.052;4.242;2023-02-02T11:51:32;102516.34;;;9.29;83.01
36692;BME280;22678;52.052;4.242;2023-02-02T11:54:03;102516.25;;;9.25;83.49
36692;BME280;22678;52.052;4.242;2023-02-02T11:56:36;102539.22;;;9.34;84.04
36692;BME280;22678;52.052;4.242;2023-02-02T11:59:02;102526.97;;;9.34;83.88
36692;BME280;22678;52.052;4.242;2023-02-02T12:01:37;102535.06;;;9.43;84.71
36692;BME280;22678;52.052;4.242;2023-02-02T12:06:39;102529.69;;;9.39;84.80
36692;BME280;22678;52.052;4.242;2023-02-02T12:09:12;102525.91;;;9.27;85.32
36692;BME280;22678;52.052;4.242;2023-02-02T12:14:30;102534.53;;;9.20;86.93
36692;BME280;22678;52.052;4.242;2023-02-02T12:22:57;102525.00;;;8.90;90.11
36692;BME280;22678;52.052;4.242;2023-02-02T12:31:01;102536.06;;;8.79;92.15
36692;BME280;22678;52.052;4.242;2023-02-02T12:47:27;102532.75;;;8.52;95.40
36692;BME280;22678;52.052;4.242;2023-02-02T12:50:06;102534.53;;;8.53;96.19
36692;BME280;22678;52.052;4.242;2023-02-02T13:03:22;102521.91;;;8.40;97.89
36692;BME280;22678;52.052;4.242;2023-02-02T13:11:21;102504.97;;;8.29;98.86
36692;BME280;22678;52.052;4.242;2023-02-02T13:14:08;102505.84;;;8.28;99.25
36692;BME280;22678;52.052;4.242;2023-02-02T13:16:37;102510.28;;;8.32;99.40
36692;BME280;22678;52.052;4.242;2023-02-02T13:19:07;102505.78;;;8.26;99.57
36692;BME280;22678;52.052;4.242;2023-02-02T13:21:37;102512.75;;;8.25;99.92
36692;BME280;22678;52.052;4.242;2023-02-02T13:24:05;102511.75;;;8.20;100.00
36692;BME280;22678;52.052;4.242;2023-02-02T13:26:37;102521.38;;;8.21;100.00
36692;BME280;22678;52.052;4.242;2023-02-02T13:32:09;102511.66;;;8.17;100.00
36692;BME280;22678;52.052;4.242;2023-02-02T13:37:38;102517.91;;;8.22;100.00
36692;BME280;22678;52.052;4.242;2023-02-02T13:45:42;102517.06;;;8.23;100.00
36692;BME280;22678;52.052;4.242;2023-02-02T13:48:18;102503.72;;;8.14;100.00
36692;BME280;22678;52.052;4.242;2023-02-02T14:02:46;102517.06;;;8.23;100.00
36692;BME280;22678;52.052;4.242;2023-02-02T14:05:23;102510.88;;;8.21;100.00
36692;BME280;22678;52.052;4.242;2023-02-02T14:07:55;102522.34;;;8.25;100.00
36692;BME280;22678;52.052;4.242;2023-02-02T14:10:27;102520.75;;;8.30;100.00
36692;BME280;22678;52.052;4.242;2023-02-02T14:12:54;102518.00;;;8.25;100.00
36692;BME280;22678;52.052;4.242;2023-02-02T14:15:38;102532.13;;;8.31;100.00
36692;BME280;22678;52.052;4.242;2023-02-02T14:18:05;102524.34;;;8.34;100.00
36692;BME280;22678;52.052;4.242;2023-02-02T14:20:42;102523.50;;;8.35;100.00
36692;BME280;22678;52.052;4.242;2023-02-02T14:34:50;102529.59;;;8.34;100.00
36692;BME280;22678;52.052;4.242;2023-02-02T14:45:38;102549.38;;;8.53;100.00
36692;BME280;22678;52.052;4.242;2023-02-02T14:53:13;102538.84;;;8.51;100.00
36692;BME280;22678;52.052;4.242;2023-02-02T14:55:55;102551.28;;;8.58;100.00
36692;BME280;22678;52.052;4.242;2023-02-02T14:58:45;102545.19;;;8.59;100.00
36692;BME280;22678;52.052;4.242;2023-02-02T15:06:49;102538.25;;;8.62;100.00
36692;BME280;22678;52.052;4.242;2023-02-02T15:14:28;102535.72;;;8.65;100.00
36692;BME280;22678;52.052;4.242;2023-02-02T15:16:56;102549.91;;;8.73;100.00
36692;BME280;22678;52.052;4.242;2023-02-02T15:19:39;102533.09;;;8.65;100.00
36692;BME280;22678;52.052;4.242;2023-02-02T15:22:22;102551.63;;;8.71;100.00
36692;BME280;22678;52.052;4.242;2023-02-02T15:24:51;102545.44;;;8.69;100.00
36692;BME280;22678;52.052;4.242;2023-02-02T15:27:18;102548.03;;;8.67;100.00
36692;BME280;22678;52.052;4.242;2023-02-02T15:29:49;102540.00;;;8.63;99.94
36692;BME280;22678;52.052;4.242;2023-02-02T15:32:19;102545.25;;;8.63;100.00
36692;BME280;22678;52.052;4.242;2023-02-02T15:34:49;102541.63;;;8.57;99.81
36692;BME280;22678;52.052;4.242;2023-02-02T15:37:20;102539.91;;;8.58;99.70
36692;BME280;22678;52.052;4.242;2023-02-02T15:39:50;102552.09;;;8.56;99.34
36692;BME280;22678;52.052;4.242;2023-02-02T15:42:21;102566.00;;;8.53;99.69
36692;BME280;22678;52.052;4.242;2023-02-02T15:47:58;102550.00;;;8.44;99.95
36692;BME280;22678;52.052;4.242;2023-02-02T15:50:24;102565.00;;;8.48;99.97